Time;durP1;ratioP1;P1;durP2;ratioP2;P2;SDS_P1;SDS_P2;PMS_P1;PMS_P2;Temp;Humidity;BMP_temperature;BMP_pressure;BME280_temperature;BME280_humidity;BME280_pressure;Samples;Min_cycle;Max_cycle;Signal;HPM_P1;HPM_P2
2023/08/30 07:44:33;;;;;;;5.32;3.45;;;;;;;13.80;92.81;95971.78;2084448;28;20611;-65
2023/08/30 07:46:46;;;;;;;4.03;2.67;;;;;;;13.69;93.12;95977.75;2099503;27;20565;-67
2023/08/30 07:49:12;;;;;;;6.18;3.25;;;;;;;13.70;92.49;95969.78;2100697;27;20556;-65
2023/08/30 07:50:14;;;;;;;6.00;3.38;;;;;;;13.92;92.72;95975.34;2096873;28;20192;-65
2023/08/30 07:51:15;;;;;;;21.48;3.47;;;;;;;13.85;91.61;95969.66;2094268;28;20224;-65
2023/08/30 07:52:16;;;;;;;4.93;2.58;;;;;;;14.10;91.09;95968.00;2092722;28;20216;-65
2023/08/30 07:53:25;;;;;;;4.65;2.90;;;;;;;14.29;90.77;95970.16;2088348;28;20203;-65
2023/08/30 07:54:28;;;;;;;12.15;3.45;;;;;;;13.99;91.24;95959.09;2089659;28;20200;-65
2023/08/30 07:55:29;;;;;;;4.53;3.03;;;;;;;14.01;91.11;95957.16;2087043;28;20543;-65
2023/08/30 07:56:31;;;;;;;5.03;3.20;;;;;;;14.09;90.10;95959.25;2087885;28;20199;-64
2023/08/30 07:57:32;;;;;;;10.93;3.13;;;;;;;14.19;89.94;95956.84;2091301;28;20237;-66
2023/08/30 07:58:34;;;;;;;5.72;3.05;;;;;;;14.45;89.94;95956.78;2095843;28;20216;-65
2023/08/30 07:59:36;;;;;;;4.43;2.80;;;;;;;14.36;89.27;95953.03;2095257;28;20551;-65
2023/08/30 08:00:38;;;;;;;5.32;3.03;;;;;;;14.52;88.29;95958.88;2095330;28;20195;-66
2023/08/30 08:01:39;;;;;;;3.75;2.55;;;;;;;14.83;87.59;95959.31;2096930;28;20287;-65
2023/08/30 08:02:41;;;;;;;5.70;2.30;;;;;;;14.86;87.69;95958.25;2095017;28;20220;-66
2023/08/30 08:03:42;;;;;;;8.98;2.78;;;;;;;14.81;87.46;95955.94;2096080;28;20196;-66
2023/08/30 08:05:00;;;;;;;3.50;2.60;;;;;;;14.78;86.69;95958.81;2094495;28;20245;-65
2023/08/30 08:06:03;;;;;;;3.40;2.30;;;;;;;15.14;85.01;95957.06;2095346;28;20203;-65
2023/08/30 08:07:04;;;;;;;2.92;2.10;;;;;;;15.09;85.22;95964.44;2095076;28;20207;-66
2023/08/30 08:08:06;;;;;;;4.57;2.72;;;;;;;15.21;84.70;95960.09;2095517;28;20255;-65
2023/08/30 08:09:08;;;;;;;5.82;2.85;;;;;;;15.38;84.10;95966.72;2095709;28;20215;-66
2023/08/30 08:10:09;;;;;;;3.50;2.30;;;;;;;14.99;84.63;95959.03;2097268;28;20287;-65
2023/08/30 08:11:11;;;;;;;6.75;2.42;;;;;;;14.94;84.96;95966.41;2094785;28;20206;-65
2023/08/30 08:12:13;;;;;;;4.22;2.75;;;;;;;14.77;84.51;95966.81;2095701;28;20196;-65
2023/08/30 08:13:14;;;;;;;5.75;2.47;;;;;;;15.12;83.77;95966.88;2097393;28;20696;-65
2023/08/30 08:14:16;;;;;;;5.65;2.80;;;;;;;15.29;82.81;95962.97;2097026;28;20196;-65
2023/08/30 08:15:18;;;;;;;3.38;2.42;;;;;;;15.41;82.88;95961.22;2096175;28;20272;-65
2023/08/30 08:16:20;;;;;;;3.72;2.30;;;;;;;15.47;83.29;95959.94;2095815;28;20188;-65
2023/08/30 08:17:21;;;;;;;3.33;2.25;;;;;;;15.52;82.97;95955.16;2094884;28;20711;-65
2023/08/30 08:18:23;;;;;;;4.93;2.22;;;;;;;15.58;82.45;95962.59;2098027;28;20196;-65
2023/08/30 08:19:25;;;;;;;7.95;2.40;;;;;;;15.56;81.33;95961.03;2099041;28;20223;-65
2023/08/30 08:20:29;;;;;;;3.63;2.30;;;;;;;15.57;81.71;95968.81;2099560;28;20192;-65
2023/08/30 08:21:31;;;;;;;4.93;2.40;;;;;;;15.50;82.07;95962.31;2099177;28;20650;-66
2023/08/30 08:22:32;;;;;;;3.60;2.08;;;;;;;15.52;82.59;95963.03;2098571;28;20284;-65
2023/08/30 08:23:34;;;;;;;2.95;2.10;;;;;;;15.48;82.02;95962.44;2095447;28;20244;-65
2023/08/30 08:24:35;;;;;;;3.03;2.10;;;;;;;15.48;82.01;95970.31;2094796;28;20245;-67
2023/08/30 08:25:37;;;;;;;3.30;2.30;;;;;;;15.55;82.33;95964.59;2095250;28;20550;-67
2023/08/30 08:26:38;;;;;;;4.82;2.10;;;;;;;15.59;82.07;95966.91;2094673;28;20198;-67
2023/08/30 08:27:40;;;;;;;3.95;2.00;;;;;;;15.68;81.46;95968.00;2095541;28;20228;-67
2023/08/30 08:28:42;;;;;;;5.32;2.75;;;;;;;15.74;81.10;95971.94;2095742;28;20200;-67
2023/08/30 08:29:43;;;;;;;6.93;2.58;;;;;;;15.80;81.15;95966.22;2098094;28;20260;-67
2023/08/30 08:30:45;;;;;;;3.88;1.92;;;;;;;16.05;80.59;95973.09;2098826;28;20291;-67
2023/08/30 08:31:46;;;;;;;4.53;2.20;;;;;;;15.98;81.99;95972.72;2094505;28;20199;-67
2023/08/30 08:32:48;;;;;;;3.67;2.53;;;;;;;16.07;81.18;95972.97;2096866;28;20223;-67
2023/08/30 08:33:52;;;;;;;4.93;2.22;;;;;;;16.12;80.87;95976.09;2097648;28;20203;-68
2023/08/30 08:34:54;;;;;;;11.05;3.10;;;;;;;16.39;79.36;95969.63;2094612;28;20200;-67
2023/08/30 08:35:55;;;;;;;4.22;2.45;;;;;;;16.62;78.44;95973.91;2096161;28;20195;-68
2023/08/30 08:36:57;;;;;;;3.65;2.60;;;;;;;16.24;78.96;95961.97;2096171;28;20257;-67
2023/08/30 08:37:58;;;;;;;5.13;2.65;;;;;;;16.07;78.90;95967.72;2094478;28;20224;-67
2023/08/30 08:39:00;;;;;;;4.60;2.25;;;;;;;16.22;79.56;95969.16;2093429;28;20559;-67
2023/08/30 08:40:08;;;;;;;4.75;2.35;;;;;;;16.68;78.35;95966.47;2093356;28;20209;-67
2023/08/30 08:41:14;;;;;;;9.07;2.80;;;;;;;16.60;78.76;95965.28;2095097;28;20195;-66
2023/08/30 08:42:17;;;;;;;11.57;6.75;;;;;;;16.36;79.68;95969.88;2091674;28;20192;-66
2023/08/30 08:43:19;;;;;;;8.57;3.03;;;;;;;16.20;79.79;95962.31;2093027;28;20197;-67
2023/08/30 08:44:22;;;;;;;6.53;2.20;;;;;;;16.79;78.03;95962.00;2094809;28;20200;-66
2023/08/30 08:45:24;;;;;;;4.63;2.42;;;;;;;17.02;77.34;95964.59;2095002;28;20231;-67
2023/08/30 08:46:28;;;;;;;4.50;2.47;;;;;;;17.19;76.42;95957.97;2095380;28;20192;-67
2023/08/30 08:47:31;;;;;;;9.23;2.58;;;;;;;17.36;76.09;95951.28;2094704;28;20228;-67
2023/08/30 08:48:40;;;;;;;3.70;2.15;;;;;;;17.28;74.56;95959.84;2094751;28;20324;-67
2023/08/30 08:49:43;;;;;;;3.40;2.40;;;;;;;17.11;74.58;95961.22;2096031;28;20204;-67
2023/08/30 08:50:46;;;;;;;5.55;2.33;;;;;;;17.03;73.59;95962.81;2095203;28;20196;-68
2023/08/30 08:51:47;;;;;;;4.85;2.65;;;;;;;17.28;73.60;95966.91;2094815;28;20196;-69
2023/08/30 08:52:49;;;;;;;4.45;2.15;;;;;;;17.43;73.69;95970.94;2092948;28;20227;-67
2023/08/30 08:54:03;;;;;;;4.03;2.90;;;;;;;17.61;72.52;95975.63;2093540;28;20212;-66
2023/08/30 08:55:05;;;;;;;6.35;2.88;;;;;;;17.71;72.96;95967.78;2093939;28;20204;-66
2023/08/30 08:56:08;;;;;;;2.92;1.95;;;;;;;17.43;72.82;95965.66;2095341;28;20222;-67
2023/08/30 08:57:09;;;;;;;3.90;2.55;;;;;;;17.33;72.81;95962.09;2094062;28;20204;-66
2023/08/30 08:58:11;;;;;;;6.95;3.05;;;;;;;17.42;73.94;95969.25;2095250;28;20650;-67
2023/08/30 08:59:12;;;;;;;3.92;3.05;;;;;;;17.55;72.08;95968.25;2094581;28;20424;-66
2023/08/30 09:00:16;;;;;;;4.85;2.33;;;;;;;17.47;73.19;95966.22;2092647;28;20192;-66
2023/08/30 09:01:18;;;;;;;7.38;2.25;;;;;;;17.21;74.24;95971.84;2089684;28;20225;-67
2023/08/30 09:02:35;;;;;;;4.07;2.50;;;;;;;17.59;73.47;95965.19;2088909;28;20235;-67
2023/08/30 09:03:37;;;;;;;6.05;2.42;;;;;;;17.60;74.03;95963.41;2090664;28;20201;-67
2023/08/30 09:04:39;;;;;;;3.50;2.55;;;;;;;17.53;74.26;95965.69;2090949;28;20203;-67
2023/08/30 09:05:41;;;;;;;3.67;2.60;;;;;;;16.58;76.33;95976.91;2089384;28;20948;-67
2023/08/30 09:06:43;;;;;;;5.82;2.40;;;;;;;17.04;75.48;95969.75;2089921;28;20802;-66
2023/08/30 09:07:45;;;;;;;3.25;2.13;;;;;;;17.34;73.62;95978.75;2089585;28;20651;-66
2023/08/30 09:08:47;;;;;;;4.15;2.42;;;;;;;17.48;73.61;95970.53;2092001;28;20220;-67
2023/08/30 09:09:49;;;;;;;3.38;2.33;;;;;;;17.92;72.65;95973.06;2092264;28;20212;-67
2023/08/30 09:10:52;;;;;;;4.05;2.28;;;;;;;18.18;71.49;95976.16;2092258;28;20204;-66
2023/08/30 09:11:53;;;;;;;3.85;2.45;;;;;;;17.96;72.63;95971.84;2089005;28;20562;-67
2023/08/30 09:12:55;;;;;;;6.22;2.38;;;;;;;18.13;72.84;95969.56;2090844;28;20314;-66
2023/08/30 09:13:56;;;;;;;5.25;2.45;;;;;;;18.27;71.47;95971.84;2091701;28;20236;-66
2023/08/30 09:14:57;;;;;;;3.65;2.60;;;;;;;18.18;71.11;95970.88;2091795;28;20196;-66
2023/08/30 09:15:59;;;;;;;2.97;2.35;;;;;;;18.27;70.63;95966.56;2091497;28;20196;-67
2023/08/30 09:17:02;;;;;;;5.72;2.40;;;;;;;18.58;70.09;95972.66;2090653;28;20215;-67
2023/08/30 09:18:04;;;;;;;4.03;2.47;;;;;;;18.73;69.62;95969.66;2089649;28;20710;-67
2023/08/30 09:19:07;;;;;;;3.92;2.60;;;;;;;18.74;69.41;95974.81;2088473;28;20192;-67
2023/08/30 09:20:12;;;;;;;3.10;2.00;;;;;;;18.56;70.54;95976.41;2081312;28;20808;-66
2023/08/30 09:21:13;;;;;;;3.75;2.75;;;;;;;18.37;70.85;95971.88;2089279;28;20583;-67
2023/08/30 09:22:15;;;;;;;3.63;2.20;;;;;;;18.11;71.23;95965.25;2088263;28;20199;-66
2023/08/30 09:23:18;;;;;;;4.15;2.53;;;;;;;18.23;70.49;95959.88;2088120;28;20224;-66
2023/08/30 09:24:20;;;;;;;9.48;2.70;;;;;;;18.53;69.76;95966.13;2090469;28;20376;-67
2023/08/30 09:25:26;;;;;;;5.43;3.00;;;;;;;18.56;70.17;95969.34;2088764;28;20513;-67
2023/08/30 09:26:31;;;;;;;10.95;2.88;;;;;;;18.77;69.32;95961.28;2089641;28;20202;-67
2023/08/30 09:27:33;;;;;;;6.85;3.03;;;;;;;19.04;69.24;95965.13;2088781;28;20224;-66
2023/08/30 09:28:42;;;;;;;3.65;2.33;;;;;;;19.25;68.31;95967.66;2089560;28;20203;-66
2023/08/30 09:29:44;;;;;;;5.10;2.20;;;;;;;19.23;67.20;95963.47;2090068;28;20217;-66
2023/08/30 09:30:51;;;;;;;7.47;2.10;;;;;;;19.09;67.18;95960.25;2089798;28;20193;-66
2023/08/30 09:31:56;;;;;;;3.67;2.58;;;;;;;19.05;67.19;95969.44;2088597;28;20196;-66
2023/08/30 09:33:02;;;;;;;4.55;2.40;;;;;;;19.06;66.68;95965.00;2088108;28;20835;-66
2023/08/30 09:34:05;;;;;;;4.57;2.92;;;;;;;19.18;66.89;95963.88;2090233;28;20192;-66
2023/08/30 09:35:07;;;;;;;5.60;2.65;;;;;;;19.33;67.35;95961.66;2089926;28;20288;-66
2023/08/30 09:36:11;;;;;;;5.60;3.30;;;;;;;19.08;63.89;95958.59;2090457;28;20200;-67
2023/08/30 09:37:20;;;;;;;4.22;2.88;;;;;;;18.90;63.69;95965.53;2090587;28;20338;-66
2023/08/30 09:38:21;;;;;;;3.60;2.65;;;;;;;19.45;64.78;95966.81;2087830;28;20196;-66
2023/08/30 09:39:23;;;;;;;5.43;2.78;;;;;;;19.61;63.15;95959.13;2089320;28;20200;-66
2023/08/30 09:40:24;;;;;;;5.47;3.45;;;;;;;19.90;61.07;95961.75;2090106;28;20224;-66
2023/08/30 09:41:26;;;;;;;5.28;3.15;;;;;;;19.94;61.58;95964.97;2091795;28;20237;-66
2023/08/30 09:42:28;;;;;;;4.30;2.70;;;;;;;19.99;63.20;95956.59;2088390;28;20595;-67
2023/08/30 09:43:29;;;;;;;4.60;3.10;;;;;;;19.86;64.87;95960.38;2089233;28;20718;-66
2023/08/30 09:44:31;;;;;;;4.65;3.75;;;;;;;19.71;64.11;95959.94;2089355;28;20204;-66
2023/08/30 09:45:33;;;;;;;4.00;2.78;;;;;;;19.73;64.47;95955.34;2089475;28;20201;-66
2023/08/30 09:46:43;;;;;;;5.05;2.75;;;;;;;19.96;64.39;95957.72;2088785;28;20199;-66
2023/08/30 09:47:52;;;;;;;6.97;3.17;;;;;;;20.14;63.53;95962.28;2088509;28;20223;-66
2023/08/30 09:48:55;;;;;;;3.80;2.72;;;;;;;20.37;63.66;95955.59;2089871;28;20279;-67
2023/08/30 09:49:58;;;;;;;5.00;2.65;;;;;;;19.97;63.81;95956.75;2090258;28;20262;-66
2023/08/30 09:51:03;;;;;;;5.65;2.50;;;;;;;20.09;63.09;95956.53;2091466;28;20200;-66
2023/08/30 09:52:08;;;;;;;5.05;2.65;;;;;;;20.09;63.27;95953.88;2091165;28;20195;-66
2023/08/30 09:53:11;;;;;;;5.57;2.63;;;;;;;19.81;62.94;95956.47;2092187;28;20276;-66
2023/08/30 09:54:20;;;;;;;3.95;2.83;;;;;;;19.92;62.59;95958.13;2089752;28;20231;-67
2023/08/30 09:55:25;;;;;;;7.05;2.40;;;;;;;19.83;62.67;95946.59;2086922;28;20796;-66
2023/08/30 09:56:28;;;;;;;5.97;2.55;;;;;;;20.44;62.36;95947.88;2088326;28;20196;-66
2023/08/30 09:57:30;;;;;;;6.45;2.80;;;;;;;20.27;60.90;95944.22;2087087;28;20231;-67
2023/08/30 09:58:31;;;;;;;5.03;2.78;;;;;;;19.93;62.84;95949.22;2087835;28;20207;-66
2023/08/30 09:59:33;;;;;;;3.65;2.55;;;;;;;19.88;61.99;95946.97;2088352;28;20275;-66
2023/08/30 10:00:36;;;;;;;4.28;3.10;;;;;;;19.95;59.64;95948.09;2085925;28;20212;-67
2023/08/30 10:01:39;;;;;;;3.90;2.08;;;;;;;19.87;60.31;95948.81;2089490;28;20196;-66
2023/08/30 10:02:43;;;;;;;5.15;2.65;;;;;;;19.49;61.88;95953.16;2088682;28;20220;-66
2023/08/30 10:04:07;;;;;;;4.38;2.45;;;;;;;19.94;59.73;95948.25;2091038;28;20204;-66
2023/08/30 10:05:12;;;;;;;3.20;2.22;;;;;;;19.93;60.60;95947.38;2088495;28;20703;-66
2023/08/30 10:06:15;;;;;;;3.97;2.55;;;;;;;20.00;61.10;95951.16;2088067;28;20197;-66
2023/08/30 10:07:18;;;;;;;3.80;2.80;;;;;;;20.13;59.69;95950.00;2088738;28;20724;-66
2023/08/30 10:08:20;;;;;;;5.65;2.72;;;;;;;20.06;60.33;95945.28;2090602;28;20520;-66
2023/08/30 10:09:23;;;;;;;7.53;3.03;;;;;;;20.33;60.22;95946.28;2091885;28;20686;-67
2023/08/30 10:10:26;;;;;;;3.22;2.70;;;;;;;19.97;61.76;95946.16;2105025;28;20926;-66
2023/08/30 10:11:29;;;;;;;3.97;2.50;;;;;;;19.75;60.63;95937.50;2098229;28;20651;-66
2023/08/30 10:12:34;;;;;;;6.15;2.50;;;;;;;20.15;60.53;95942.72;2087493;28;20349;-66
2023/08/30 10:13:41;;;;;;;5.50;2.45;;;;;;;20.44;59.17;95941.75;2089888;28;21091;-66
2023/08/30 10:14:43;;;;;;;7.75;2.83;;;;;;;19.63;60.72;95935.16;2089458;28;20291;-67
2023/08/30 10:15:50;;;;;;;6.03;2.42;;;;;;;19.80;60.25;95934.44;2088871;28;20844;-66
2023/08/30 10:17:00;;;;;;;3.75;2.58;;;;;;;19.50;61.21;95932.81;2088155;28;20629;-66
2023/08/30 10:18:06;;;;;;;6.53;2.97;;;;;;;20.21;60.47;95928.88;2089457;28;20225;-67
2023/08/30 10:19:26;;;;;;;5.22;2.70;;;;;;;20.41;59.65;95932.28;2088408;28;20200;-66
2023/08/30 10:20:28;;;;;;;4.10;2.88;;;;;;;20.59;59.76;95931.50;2088581;28;20541;-67
2023/08/30 10:21:35;;;;;;;6.28;2.50;;;;;;;20.72;60.05;95924.03;2093173;28;20261;-67
2023/08/30 10:22:39;;;;;;;3.90;2.60;;;;;;;20.77;60.43;95924.44;2092359;28;20310;-67
2023/08/30 10:23:42;;;;;;;5.30;2.50;;;;;;;20.57;61.65;95926.34;2088500;28;20209;-67
2023/08/30 10:24:52;;;;;;;4.47;2.65;;;;;;;20.22;61.80;95926.09;2087491;28;20204;-68
2023/08/30 10:26:12;;;;;;;6.07;2.88;;;;;;;19.94;63.32;95927.03;2090485;28;20196;-68
2023/08/30 10:27:16;;;;;;;3.90;2.60;;;;;;;19.92;63.90;95932.47;2089120;28;20196;-68
2023/08/30 10:28:19;;;;;;;4.00;2.67;;;;;;;19.80;64.73;95928.31;2089868;28;20593;-68
2023/08/30 10:29:23;;;;;;;5.40;2.70;;;;;;;19.55;64.97;95930.56;2087849;28;20223;-68
2023/08/30 10:30:25;;;;;;;3.17;2.00;;;;;;;19.31;65.73;95931.88;2089757;28;20212;-68
2023/08/30 10:31:28;;;;;;;6.35;2.70;;;;;;;18.87;65.90;95934.88;2090039;28;20727;-68
2023/08/30 10:32:32;;;;;;;4.40;2.50;;;;;;;18.75;67.17;95933.31;2090055;28;20286;-68
2023/08/30 10:33:46;;;;;;;6.35;2.20;;;;;;;18.67;68.59;95926.06;2091182;28;20203;-68
2023/08/30 10:34:51;;;;;;;4.63;2.83;;;;;;;18.48;69.29;95934.78;2088241;28;20256;-68
2023/08/30 10:35:55;;;;;;;3.42;2.05;;;;;;;18.42;70.05;95932.69;2089181;28;20206;-67
2023/08/30 11:11:50;;;;;;;6.93;3.80;;;;;;;16.47;87.67;95933.78;2085025;28;20551;-65
2023/08/30 11:14:29;;;;;;;5.75;4.28;;;;;;;16.04;84.62;95928.47;2089252;28;20558;-65
2023/08/30 11:15:31;;;;;;;7.72;3.35;;;;;;;16.07;84.44;95925.56;2089337;28;20199;-65
2023/08/30 11:18:07;;;;;;;8.95;3.88;;;;;;;16.08;86.90;95914.91;2084236;28;20576;-65
2023/08/30 11:19:11;;;;;;;6.28;4.05;;;;;;;15.95;88.00;95908.94;2078217;28;20201;-65
2023/08/30 11:20:16;;;;;;;5.25;4.28;;;;;;;15.95;88.07;95919.47;2077652;28;20285;-65
2023/08/30 11:21:18;;;;;;;6.15;4.40;;;;;;;15.93;88.09;95889.78;2081308;28;20628;-65
2023/08/30 11:22:20;;;;;;;6.28;4.43;;;;;;;16.14;86.97;95910.97;2079300;28;21111;-65
2023/08/30 11:23:21;;;;;;;7.63;4.60;;;;;;;16.22;88.64;95913.81;2077266;28;20686;-65
2023/08/30 11:24:23;;;;;;;5.10;3.50;;;;;;;16.21;86.20;95908.69;2078550;28;20205;-65
2023/08/30 11:25:25;;;;;;;5.68;3.97;;;;;;;16.40;86.64;95908.06;2079443;28;20248;-66
2023/08/30 11:26:26;;;;;;;6.90;4.55;;;;;;;16.46;87.32;95902.31;2076321;28;20558;-65
2023/08/30 11:27:28;;;;;;;6.20;4.80;;;;;;;16.60;87.82;95907.28;2080511;28;20282;-66
2023/08/30 11:28:30;;;;;;;7.95;4.60;;;;;;;16.75;86.79;95910.50;2081295;28;20205;-67
2023/08/30 11:29:31;;;;;;;7.22;4.18;;;;;;;16.83;85.73;95906.41;2078379;28;20328;-67
2023/08/30 11:30:32;;;;;;;6.95;4.72;;;;;;;16.86;85.57;95904.38;2078378;28;20200;-67
2023/08/30 11:31:34;;;;;;;19.63;11.02;;;;;;;17.03;85.37;95910.09;2078926;28;20201;-67
2023/08/30 11:32:39;;;;;;;36.45;19.17;;;;;;;17.07;85.80;95900.94;2078064;28;20213;-67
2023/08/30 11:33:50;;;;;;;47.03;23.83;;;;;;;17.09;84.18;95910.41;2081635;28;20204;-67
2023/08/30 11:35:00;;;;;;;45.50;22.90;;;;;;;17.19;85.95;95905.22;2079567;28;20211;-67
2023/08/30 11:36:01;;;;;;;20.70;12.15;;;;;;;17.26;87.95;95903.72;2080286;28;20258;-67
2023/08/30 11:37:03;;;;;;;14.88;5.65;;;;;;;16.93;84.87;95907.34;2077915;28;20201;-66
2023/08/30 11:38:05;;;;;;;6.47;4.80;;;;;;;16.85;84.09;95902.69;2077748;28;20219;-67
2023/08/30 11:39:06;;;;;;;8.98;4.68;;;;;;;16.91;84.77;95901.34;2079044;28;20797;-67
2023/08/30 11:40:11;;;;;;;5.47;4.35;;;;;;;17.13;84.16;95900.44;2078855;28;20308;-67
2023/08/30 11:41:12;;;;;;;6.05;4.13;;;;;;;17.30;84.56;95906.94;2079983;28;20193;-67
2023/08/30 11:42:14;;;;;;;5.10;3.95;;;;;;;17.40;81.97;95907.84;2079831;28;20285;-67
2023/08/30 11:43:19;;;;;;;7.13;3.80;;;;;;;17.37;81.42;95907.25;2078342;28;20201;-67
2023/08/30 11:44:24;;;;;;;7.00;3.25;;;;;;;17.42;78.50;95911.19;2078483;28;20198;-67
2023/08/30 11:45:25;;;;;;;4.68;2.95;;;;;;;17.43;79.50;95901.47;2079638;28;20305;-67
2023/08/30 11:46:27;;;;;;;7.50;3.60;;;;;;;17.19;82.31;95909.63;2078858;28;20197;-67
2023/08/30 11:47:28;;;;;;;5.38;3.80;;;;;;;17.40;82.75;95901.75;2078380;28;20225;-67
2023/08/30 11:48:30;;;;;;;5.30;3.50;;;;;;;17.73;79.47;95900.66;2079181;28;20884;-67
2023/08/30 11:49:33;;;;;;;4.00;2.90;;;;;;;17.65;80.41;95904.94;2079321;28;20200;-67
2023/08/30 11:50:35;;;;;;;4.97;3.20;;;;;;;17.72;78.69;95901.63;2081252;28;20296;-67
2023/08/30 11:51:49;;;;;;;3.40;2.72;;;;;;;18.35;76.07;95905.13;2082076;28;20208;-67
2023/08/30 11:52:51;;;;;;;5.35;2.60;;;;;;;18.90;74.65;95904.69;2081727;28;20281;-67
2023/08/30 11:53:54;;;;;;;9.25;2.95;;;;;;;18.64;74.59;95907.84;2082141;28;20616;-67
2023/08/30 11:54:55;;;;;;;4.15;3.10;;;;;;;18.58;76.09;95903.91;2082558;28;20292;-67
2023/08/30 11:55:57;;;;;;;4.60;2.80;;;;;;;19.04;74.88;95911.38;2081526;28;20679;-67
2023/08/30 11:56:58;;;;;;;6.55;3.58;;;;;;;19.44;77.29;95902.47;2080122;28;20197;-67
2023/08/30 11:58:01;;;;;;;4.15;2.92;;;;;;;18.88;79.80;95903.97;2078893;28;20735;-67
2023/08/30 11:59:04;;;;;;;7.35;3.00;;;;;;;18.96;81.19;95903.28;2079431;28;20220;-67
2023/08/30 12:00:12;;;;;;;5.50;3.22;;;;;;;19.39;77.83;95897.56;2080619;28;20288;-67
2023/08/30 12:01:14;;;;;;;6.78;3.55;;;;;;;19.49;79.10;95896.72;2080549;28;20215;-67
2023/08/30 12:02:17;;;;;;;7.28;4.22;;;;;;;19.52;81.65;95893.81;2079401;28;20751;-67
2023/08/30 12:03:18;;;;;;;5.22;3.50;;;;;;;18.89;81.45;95893.25;2083176;28;20200;-67
2023/08/30 12:04:20;;;;;;;4.35;3.55;;;;;;;18.34;83.65;95900.81;2079310;28;20243;-66
2023/08/30 12:05:21;;;;;;;6.60;4.15;;;;;;;17.84;85.39;95896.28;2078771;28;20264;-67
2023/08/30 12:06:23;;;;;;;6.13;3.47;;;;;;;17.56;87.14;95891.56;2079290;28;20584;-67
2023/08/30 12:07:26;;;;;;;5.72;4.50;;;;;;;17.29;88.00;95882.38;2079665;28;20293;-67
2023/08/30 12:08:30;;;;;;;6.63;4.20;;;;;;;17.72;87.13;95885.78;2080041;28;20240;-67
2023/08/30 12:09:32;;;;;;;5.07;3.92;;;;;;;17.62;87.37;95901.59;2078546;28;20722;-67
2023/08/30 12:10:33;;;;;;;6.70;4.13;;;;;;;17.46;89.25;95895.94;2076228;28;20220;-67
2023/08/30 12:11:35;;;;;;;9.20;3.92;;;;;;;17.76;86.86;95889.88;2076691;28;20394;-67
2023/08/30 12:12:37;;;;;;;6.10;4.43;;;;;;;17.57;87.06;95900.31;2076456;28;20221;-67
2023/08/30 12:13:38;;;;;;;8.35;4.90;;;;;;;17.87;85.71;95890.75;2078910;28;20196;-67
2023/08/30 12:14:40;;;;;;;8.45;3.70;;;;;;;17.95;83.74;95897.06;2078279;28;20201;-67
2023/08/30 12:15:41;;;;;;;5.90;4.10;;;;;;;17.89;82.58;95888.78;2078786;28;20325;-67
2023/08/30 12:16:45;;;;;;;7.32;4.10;;;;;;;18.02;84.01;95884.16;2078817;28;20285;-67
2023/08/30 12:17:47;;;;;;;8.55;4.22;;;;;;;17.47;86.31;95889.69;2077401;28;20812;-67
2023/08/30 12:18:49;;;;;;;7.38;5.30;;;;;;;17.52;85.16;95884.88;2078339;28;20239;-67
2023/08/30 12:19:57;;;;;;;6.93;4.45;;;;;;;17.49;86.68;95882.47;2080751;28;20563;-67
2023/08/30 12:21:00;;;;;;;8.05;4.75;;;;;;;17.68;86.37;95884.38;2080424;28;20200;-67
2023/08/30 12:22:04;;;;;;;6.32;4.82;;;;;;;18.28;83.74;95900.38;2082433;28;20196;-67
2023/08/30 12:23:06;;;;;;;10.43;4.47;;;;;;;18.24;82.15;95890.22;2080965;28;20922;-67
2023/08/30 12:24:09;;;;;;;7.80;4.30;;;;;;;19.25;79.96;95887.44;2078732;28;20205;-67
2023/08/30 12:25:20;;;;;;;5.95;4.70;;;;;;;19.17;79.05;95884.63;2080352;28;20216;-67
2023/08/30 12:26:32;;;;;;;6.68;4.75;;;;;;;19.09;79.97;95885.34;2081741;28;20586;-67
2023/08/30 12:27:34;;;;;;;4.95;3.80;;;;;;;19.10;77.29;95881.72;2081048;28;20224;-68
2023/08/30 12:28:37;;;;;;;6.32;3.90;;;;;;;19.38;78.85;95880.03;2083948;28;20263;-67
2023/08/30 12:29:39;;;;;;;7.25;3.60;;;;;;;19.22;77.00;95874.47;2074279;28;20653;-67
2023/08/30 12:30:41;;;;;;;5.07;3.17;;;;;;;19.45;74.83;95879.47;2073516;28;20208;-67
2023/08/30 12:31:42;;;;;;;6.68;4.53;;;;;;;19.56;76.63;95884.59;2073230;28;20204;-67
2023/08/30 12:32:48;;;;;;;7.28;3.97;;;;;;;18.89;78.87;95874.75;2074006;28;20240;-67
2023/08/30 12:33:50;;;;;;;8.80;3.67;;;;;;;19.00;79.47;95883.53;2071920;28;20198;-67
2023/08/30 12:34:51;;;;;;;8.30;4.20;;;;;;;19.04;79.80;95885.75;2072458;28;20248;-67
2023/08/30 12:35:53;;;;;;;10.30;4.10;;;;;;;18.03;81.98;95885.84;2072604;28;20255;-67
2023/08/30 12:36:55;;;;;;;7.53;4.38;;;;;;;18.25;81.54;95884.78;2072608;28;20201;-67
2023/08/30 12:37:56;;;;;;;5.85;4.28;;;;;;;18.79;77.40;95884.47;2071895;28;20228;-67
2023/08/30 12:38:58;;;;;;;7.70;3.47;;;;;;;19.61;79.09;95885.00;2073207;28;20285;-67
2023/08/30 12:39:59;;;;;;;8.18;3.53;;;;;;;20.30;73.86;95877.66;2073891;28;20729;-67
2023/08/30 12:41:01;;;;;;;5.15;3.17;;;;;;;19.20;76.88;95879.09;2073286;28;20254;-67
2023/08/30 12:42:02;;;;;;;7.13;3.58;;;;;;;18.95;79.95;95881.31;2073493;28;20201;-67
2023/08/30 12:43:04;;;;;;;7.40;3.53;;;;;;;19.10;77.04;95879.09;2072555;28;20225;-67
2023/08/30 12:44:06;;;;;;;5.00;3.00;;;;;;;19.03;75.79;95876.16;2073038;28;20281;-67
2023/08/30 12:45:07;;;;;;;5.70;3.00;;;;;;;18.80;76.94;95878.19;2071490;28;20668;-67
2023/08/30 12:46:09;;;;;;;5.35;3.42;;;;;;;19.02;77.51;95877.13;2074176;28;20198;-67
2023/08/30 12:47:13;;;;;;;5.63;3.17;;;;;;;18.21;78.04;95874.63;2073179;28;20692;-67
2023/08/30 12:48:17;;;;;;;3.90;3.08;;;;;;;18.83;77.97;95879.72;2073197;28;20236;-67
2023/08/30 12:49:19;;;;;;;7.43;3.10;;;;;;;19.36;77.16;95875.84;2072212;28;20285;-67
2023/08/30 12:50:21;;;;;;;4.05;2.83;;;;;;;19.91;75.56;95869.88;2071985;28;20190;-67
2023/08/30 12:51:23;;;;;;;6.85;3.42;;;;;;;19.90;73.06;95876.97;2074809;28;20208;-67
2023/08/30 12:52:24;;;;;;;6.10;3.10;;;;;;;19.66;73.40;95879.28;2070571;28;20232;-67
2023/08/30 12:53:26;;;;;;;5.13;3.03;;;;;;;19.63;72.02;95877.75;2071359;28;20224;-67
2023/08/30 12:54:27;;;;;;;7.72;3.20;;;;;;;19.23;72.16;95876.16;2071651;28;20286;-67
2023/08/30 12:55:29;;;;;;;5.60;2.70;;;;;;;18.02;76.35;95873.59;2072371;28;20275;-67
2023/08/30 12:56:30;;;;;;;4.43;2.88;;;;;;;18.58;75.00;95876.66;2074824;28;20193;-67
2023/08/30 12:57:32;;;;;;;11.88;2.83;;;;;;;18.42;77.38;95872.75;2072486;28;20595;-70
2023/08/30 12:58:34;;;;;;;3.90;2.58;;;;;;;18.49;78.26;95870.38;2075187;28;20214;-70
2023/08/30 12:59:35;;;;;;;4.55;2.92;;;;;;;17.98;78.02;95866.91;2073357;28;20709;-70
2023/08/30 13:00:37;;;;;;;4.65;2.90;;;;;;;17.56;77.35;95865.16;2072973;28;20855;-71
2023/08/30 13:01:38;;;;;;;3.63;2.60;;;;;;;17.99;78.19;95871.22;2073149;28;20198;-70
2023/08/30 13:02:42;;;;;;;6.18;2.75;;;;;;;17.66;77.04;95867.00;2088034;28;20898;-70
2023/08/30 13:03:43;;;;;;;6.50;2.85;;;;;;;17.67;77.86;95861.59;2088673;28;20204;-70
2023/08/30 13:04:45;;;;;;;6.10;3.00;;;;;;;17.73;76.16;95866.34;2074588;28;20202;-70
2023/08/30 13:05:46;;;;;;;8.35;3.28;;;;;;;18.02;77.37;95870.94;2075264;28;20201;-70
2023/08/30 13:06:47;;;;;;;5.28;2.80;;;;;;;18.23;78.39;95868.25;2075801;28;20237;-70
2023/08/30 13:07:49;;;;;;;4.78;3.00;;;;;;;18.24;78.32;95869.91;2075646;28;20270;-70
2023/08/30 13:08:50;;;;;;;3.80;2.67;;;;;;;18.29;77.52;95851.00;2074120;28;20190;-70
2023/08/30 13:09:52;;;;;;;8.63;2.70;;;;;;;18.17;77.08;95873.22;2075087;28;20672;-70
2023/08/30 13:10:53;;;;;;;4.28;2.72;;;;;;;18.61;75.05;95876.38;2072412;28;20209;-70
2023/08/30 13:11:55;;;;;;;11.45;3.47;;;;;;;19.87;73.78;95876.44;2088531;28;20203;-71
2023/08/30 13:12:57;;;;;;;7.28;2.65;;;;;;;20.33;69.59;95864.09;2089855;28;20220;-71
2023/08/30 13:13:58;;;;;;;4.03;2.20;;;;;;;20.01;69.92;95853.94;2073121;28;20194;-70
2023/08/30 13:15:00;;;;;;;2.72;2.00;;;;;;;20.11;67.69;95856.53;2073052;28;20256;-70
2023/08/30 13:16:01;;;;;;;3.30;2.00;;;;;;;20.27;71.05;95866.53;2073842;28;20201;-69
2023/08/30 13:17:03;;;;;;;5.05;2.60;;;;;;;19.69;71.65;95857.78;2073939;28;20197;-70
2023/08/30 13:18:04;;;;;;;6.80;2.33;;;;;;;20.30;72.36;95852.94;2073729;28;20234;-70
2023/08/30 13:19:06;;;;;;;5.95;3.60;;;;;;;20.11;72.12;95856.53;2074085;28;20402;-70
2023/08/30 13:20:08;;;;;;;29.95;19.58;;;;;;;20.70;71.37;95852.59;2073165;28;20718;-71
2023/08/30 13:21:09;;;;;;;6.80;4.47;;;;;;;20.56;70.29;95851.25;2074623;28;20201;-72